sensor_id;sensor_type;location;lat;lon;timestamp;temperature;humidity
8709;DHT22;4391;48.678;9.280;2023-03-01T00:02:22;-2.70;1.00
8709;DHT22;4391;48.678;9.280;2023-03-01T00:04:50;-2.70;1.00
8709;DHT22;4391;48.678;9.280;2023-03-01T00:07:17;-2.70;1.00
8709;DHT22;4391;48.678;9.280;2023-03-01T00:09:44;-2.70;1.00
8709;DHT22;4391;48.678;9.280;2023-03-01T00:12:11;-2.70;1.00
8709;DHT22;4391;48.678;9.280;2023-03-01T00:14:38;-2.70;1.00
8709;DHT22;4391;48.678;9.280;2023-03-01T00:17:05;-2.80;1.00
8709;DHT22;4391;48.678;9.280;2023-03-01T00:19:32;-2.80;1.00
8709;DHT22;4391;48.678;9.280;2023-03-01T00:22:00;-2.80;1.00
8709;DHT22;4391;48.678;9.280;2023-03-01T00:24:27;-2.90;1.00
8709;DHT22;4391;48.678;9.280;2023-03-01T00:26:54;-2.90;1.00
8709;DHT22;4391;48.678;9.280;2023-03-01T00:29:22;-2.90;1.00
8709;DHT22;4391;48.678;9.280;2023-03-01T00:31:48;-2.90;1.00
8709;DHT22;4391;48.678;9.280;2023-03-01T00:34:15;-2.90;1.00
8709;DHT22;4391;48.678;9.280;2023-03-01T00:36:42;-3.00;1.00
8709;DHT22;4391;48.678;9.280;2023-03-01T00:39:13;-3.00;1.00
8709;DHT22;4391;48.678;9.280;2023-03-01T00:41:40;-3.00;1.00
8709;DHT22;4391;48.678;9.280;2023-03-01T00:44:07;-3.00;1.00
8709;DHT22;4391;48.678;9.280;2023-03-01T00:46:33;-3.10;1.00
8709;DHT22;4391;48.678;9.280;2023-03-01T00:49:00;-3.10;1.00
8709;DHT22;4391;48.678;9.280;2023-03-01T00:51:28;-3.10;1.00
8709;DHT22;4391;48.678;9.280;2023-03-01T00:53:58;-3.20;1.00
8709;DHT22;4391;48.678;9.280;2023-03-01T00:56:27;-3.20;1.00
8709;DHT22;4391;48.678;9.280;2023-03-01T00:58:55;-3.20;1.00
8709;DHT22;4391;48.678;9.280;2023-03-01T01:01:24;-3.30;1.00
8709;DHT22;4391;48.678;9.280;2023-03-01T01:03:54;-3.30;1.00
8709;DHT22;4391;48.678;9.280;2023-03-01T01:06:24;-3.30;1.00
8709;DHT22;4391;48.678;9.280;2023-03-01T01:08:53;-3.30;1.00
8709;DHT22;4391;48.678;9.280;2023-03-01T01:11:21;-3.30;1.00
8709;DHT22;4391;48.678;9.280;2023-03-01T01:13:50;-3.30;1.00
8709;DHT22;4391;48.678;9.280;2023-03-01T01:16:19;-3.40;1.00
8709;DHT22;4391;48.678;9.280;2023-03-01T01:18:46;-3.40;1.00
8709;DHT22;4391;48.678;9.280;2023-03-01T01:21:14;-3.40;1.00
8709;DHT22;4391;48.678;9.280;2023-03-01T01:23:42;-3.40;1.00
8709;DHT22;4391;48.678;9.280;2023-03-01T01:26:11;-3.30;1.00
8709;DHT22;4391;48.678;9.280;2023-03-01T01:28:38;-3.30;1.00
8709;DHT22;4391;48.678;9.280;2023-03-01T01:31:07;-3.40;1.00
8709;DHT22;4391;48.678;9.280;2023-03-01T01:33:34;-3.30;1.00
8709;DHT22;4391;48.678;9.280;2023-03-01T01:36:01;-3.30;1.00
8709;DHT22;4391;48.678;9.280;2023-03-01T01:38:28;-3.20;1.00
8709;DHT22;4391;48.678;9.280;2023-03-01T01:40:55;-3.20;1.00
8709;DHT22;4391;48.678;9.280;2023-03-01T01:43:25;-3.00;1.00
8709;DHT22;4391;48.678;9.280;2023-03-01T01:45:55;-2.90;1.00
8709;DHT22;4391;48.678;9.280;2023-03-01T01:48:29;-2.70;1.00
8709;DHT22;4391;48.678;9.280;2023-03-01T01:51:07;-2.60;1.00
8709;DHT22;4391;48.678;9.280;2023-03-01T01:53:35;-2.50;1.00
8709;DHT22;4391;48.678;9.280;2023-03-01T01:56:06;-2.40;1.00
8709;DHT22;4391;48.678;9.280;2023-03-01T01:58:34;-2.30;1.00
8709;DHT22;4391;48.678;9.280;2023-03-01T02:01:00;-2.20;1.00
8709;DHT22;4391;48.678;9.280;2023-03-01T02:03:31;-2.10;1.00
8709;DHT22;4391;48.678;9.280;2023-03-01T02:06:05;-2.00;1.00
8709;DHT22;4391;48.678;9.280;2023-03-01T02:08:37;-1.90;1.00
8709;DHT22;4391;48.678;9.280;2023-03-01T02:11:05;-1.80;1.00
8709;DHT22;4391;48.678;9.280;2023-03-01T02:13:34;-1.70;1.00
8709;DHT22;4391;48.678;9.280;2023-03-01T02:16:03;-1.60;1.00
8709;DHT22;4391;48.678;9.280;2023-03-01T02:18:32;-1.50;1.00
8709;DHT22;4391;48.678;9.280;2023-03-01T02:21:08;-1.50;1.00
8709;DHT22;4391;48.678;9.280;2023-03-01T02:23:38;-1.40;1.00
8709;DHT22;4391;48.678;9.280;2023-03-01T02:26:10;-1.40;1.00
8709;DHT22;4391;48.678;9.280;2023-03-01T02:28:42;-1.30;1.00
8709;DHT22;4391;48.678;9.280;2023-03-01T02:31:10;-1.30;1.00
8709;DHT22;4391;48.678;9.280;2023-03-01T02:33:58;-1.30;1.00
8709;DHT22;4391;48.678;9.280;2023-03-01T02:36:28;-1.20;1.00
8709;DHT22;4391;48.678;9.280;2023-03-01T02:38:57;-1.20;1.00
8709;DHT22;4391;48.678;9.280;2023-03-01T02:41:27;-1.10;1.00
8709;DHT22;4391;48.678;9.280;2023-03-01T02:43:56;-1.10;1.00
8709;DHT22;4391;48.678;9.280;2023-03-01T02:46:24;-1.10;1.00
8709;DHT22;4391;48.678;9.280;2023-03-01T02:48:53;-1.10;1.00
8709;DHT22;4391;48.678;9.280;2023-03-01T02:51:32;-1.10;1.00
8709;DHT22;4391;48.678;9.280;2023-03-01T02:54:10;-1.10;1.00
8709;DHT22;4391;48.678;9.280;2023-03-01T02:56:39;-1.00;1.00
8709;DHT22;4391;48.678;9.280;2023-03-01T02:59:08;-1.00;1.00
8709;DHT22;4391;48.678;9.280;2023-03-01T03:01:35;-1.00;1.00
8709;DHT22;4391;48.678;9.280;2023-03-01T03:04:06;-1.00;1.00
8709;DHT22;4391;48.678;9.280;2023-03-01T03:06:33;-1.00;99.90
8709;DHT22;4391;48.678;9.280;2023-03-01T03:09:00;-0.90;99.90
8709;DHT22;4391;48.678;9.280;2023-03-01T03:11:27;-0.90;99.90
8709;DHT22;4391;48.678;9.280;2023-03-01T03:13:55;-1.00;99.90
8709;DHT22;4391;48.678;9.280;2023-03-01T03:16:24;-0.90;99.90
8709;DHT22;4391;48.678;9.280;2023-03-01T03:18:52;-0.90;99.90
8709;DHT22;4391;48.678;9.280;2023-03-01T03:21:18;-0.90;99.90
8709;DHT22;4391;48.678;9.280;2023-03-01T03:23:45;-0.90;99.90
8709;DHT22;4391;48.678;9.280;2023-03-01T03:26:12;-0.90;99.90
8709;DHT22;4391;48.678;9.280;2023-03-01T03:28:40;-0.90;99.90
8709;DHT22;4391;48.678;9.280;2023-03-01T03:31:07;-0.80;99.90
8709;DHT22;4391;48.678;9.280;2023-03-01T03:33:36;-0.80;99.90
8709;DHT22;4391;48.678;9.280;2023-03-01T03:36:03;-0.80;99.90
8709;DHT22;4391;48.678;9.280;2023-03-01T03:38:30;-0.80;99.90
8709;DHT22;4391;48.678;9.280;2023-03-01T03:41:03;-0.80;99.90
8709;DHT22;4391;48.678;9.280;2023-03-01T03:43:32;-0.80;99.90
8709;DHT22;4391;48.678;9.280;2023-03-01T03:45:59;-0.70;99.90
8709;DHT22;4391;48.678;9.280;2023-03-01T03:48:26;-0.70;99.90
8709;DHT22;4391;48.678;9.280;2023-03-01T03:50:56;-0.70;99.90
8709;DHT22;4391;48.678;9.280;2023-03-01T03:53:25;-0.70;99.90
8709;DHT22;4391;48.678;9.280;2023-03-01T03:55:53;-0.70;99.90
8709;DHT22;4391;48.678;9.280;2023-03-01T03:58:21;-0.70;99.90
8709;DHT22;4391;48.678;9.280;2023-03-01T04:00:51;-0.70;99.90
8709;DHT22;4391;48.678;9.280;2023-03-01T04:03:19;-0.60;99.90
8709;DHT22;4391;48.678;9.280;2023-03-01T04:05:47;-0.60;99.90
8709;DHT22;4391;48.678;9.280;2023-03-01T04:08:17;-0.60;99.90
8709;DHT22;4391;48.678;9.280;2023-03-01T04:10:46;-0.60;99.90
8709;DHT22;4391;48.678;9.280;2023-03-01T04:13:15;-0.60;99.90
8709;DHT22;4391;48.678;9.280;2023-03-01T04:15:42;-0.50;99.90
8709;DHT22;4391;48.678;9.280;2023-03-01T04:18:12;-0.60;99.90
8709;DHT22;4391;48.678;9.280;2023-03-01T04:20:39;-0.50;99.90
8709;DHT22;4391;48.678;9.280;2023-03-01T04:23:08;-0.50;99.90
8709;DHT22;4391;48.678;9.280;2023-03-01T04:25:41;-0.50;99.90
8709;DHT22;4391;48.678;9.280;2023-03-01T04:28:09;-0.50;99.90
8709;DHT22;4391;48.678;9.280;2023-03-01T04:30:36;-0.50;99.90
8709;DHT22;4391;48.678;9.280;2023-03-01T04:33:04;-0.50;99.90
8709;DHT22;4391;48.678;9.280;2023-03-01T04:35:31;-0.50;99.90
8709;DHT22;4391;48.678;9.280;2023-03-01T04:37:58;-0.40;99.90
8709;DHT22;4391;48.678;9.280;2023-03-01T04:40:25;-0.50;74.50
8709;DHT22;4391;48.678;9.280;2023-03-01T04:42:53;-0.40;99.90
8709;DHT22;4391;48.678;9.280;2023-03-01T04:45:20;-0.40;99.90
8709;DHT22;4391;48.678;9.280;2023-03-01T04:47:48;-0.40;99.90
8709;DHT22;4391;48.678;9.280;2023-03-01T04:50:16;-0.40;75.90
8709;DHT22;4391;48.678;9.280;2023-03-01T04:52:46;-0.40;73.60
8709;DHT22;4391;48.678;9.280;2023-03-01T04:55:14;-0.40;99.90
8709;DHT22;4391;48.678;9.280;2023-03-01T04:57:41;-0.40;23.40
8709;DHT22;4391;48.678;9.280;2023-03-01T05:00:13;-0.40;22.90
8709;DHT22;4391;48.678;9.280;2023-03-01T05:02:51;-0.30;4.00
8709;DHT22;4391;48.678;9.280;2023-03-01T05:05:21;-0.30;68.00
8709;DHT22;4391;48.678;9.280;2023-03-01T05:07:52;-0.30;1.00
8709;DHT22;4391;48.678;9.280;2023-03-01T05:10:18;-0.30;24.00
8709;DHT22;4391;48.678;9.280;2023-03-01T05:12:45;-0.30;1.00
8709;DHT22;4391;48.678;9.280;2023-03-01T05:15:14;-0.30;1.00
8709;DHT22;4391;48.678;9.280;2023-03-01T05:17:41;-0.30;1.00
8709;DHT22;4391;48.678;9.280;2023-03-01T05:20:09;-0.30;1.00
8709;DHT22;4391;48.678;9.280;2023-03-01T05:22:36;-0.30;1.00
8709;DHT22;4391;48.678;9.280;2023-03-01T05:25:04;-0.30;1.00
8709;DHT22;4391;48.678;9.280;2023-03-01T05:27:32;-0.30;1.00
8709;DHT22;4391;48.678;9.280;2023-03-01T05:29:59;-0.30;1.00
8709;DHT22;4391;48.678;9.280;2023-03-01T05:32:40;-0.30;1.00
8709;DHT22;4391;48.678;9.280;2023-03-01T05:35:08;-0.30;1.00
8709;DHT22;4391;48.678;9.280;2023-03-01T05:37:39;-0.30;1.00
8709;DHT22;4391;48.678;9.280;2023-03-01T05:40:07;-0.30;1.00
8709;DHT22;4391;48.678;9.280;2023-03-01T05:42:42;-0.30;1.00
8709;DHT22;4391;48.678;9.280;2023-03-01T05:45:09;-0.30;1.00
8709;DHT22;4391;48.678;9.280;2023-03-01T05:47:38;-0.30;1.00
8709;DHT22;4391;48.678;9.280;2023-03-01T05:50:07;-0.20;1.00
8709;DHT22;4391;48.678;9.280;2023-03-01T05:52:34;-0.20;1.00
8709;DHT22;4391;48.678;9.280;2023-03-01T05:55:00;-0.20;1.00
8709;DHT22;4391;48.678;9.280;2023-03-01T05:57:28;-0.20;99.90
8709;DHT22;4391;48.678;9.280;2023-03-01T05:59:55;-0.20;1.00
8709;DHT22;4391;48.678;9.280;2023-03-01T06:02:22;-0.20;1.00
8709;DHT22;4391;48.678;9.280;2023-03-01T06:04:49;-0.20;1.00
8709;DHT22;4391;48.678;9.280;2023-03-01T06:07:17;-0.20;99.90
8709;DHT22;4391;48.678;9.280;2023-03-01T06:09:44;-0.20;1.00
8709;DHT22;4391;48.678;9.280;2023-03-01T06:12:11;-0.10;99.90
8709;DHT22;4391;48.678;9.280;2023-03-01T06:14:37;-0.10;99.90
8709;DHT22;4391;48.678;9.280;2023-03-01T06:17:04;-0.10;99.90
8709;DHT22;4391;48.678;9.280;2023-03-01T06:19:31;-0.10;99.90
8709;DHT22;4391;48.678;9.280;2023-03-01T06:21:58;-0.10;99.90
8709;DHT22;4391;48.678;9.280;2023-03-01T06:24:26;-0.20;99.90
8709;DHT22;4391;48.678;9.280;2023-03-01T06:26:54;-0.30;99.90
8709;DHT22;4391;48.678;9.280;2023-03-01T06:29:21;-0.30;1.00
8709;DHT22;4391;48.678;9.280;2023-03-01T06:31:49;-0.40;1.00
8709;DHT22;4391;48.678;9.280;2023-03-01T06:34:15;-0.40;42.40
8709;DHT22;4391;48.678;9.280;2023-03-01T06:36:42;-0.40;99.90
8709;DHT22;4391;48.678;9.280;2023-03-01T06:39:09;-0.50;99.90
8709;DHT22;4391;48.678;9.280;2023-03-01T06:41:37;-0.50;99.90
8709;DHT22;4391;48.678;9.280;2023-03-01T06:44:04;-0.50;99.90
8709;DHT22;4391;48.678;9.280;2023-03-01T06:46:31;-0.60;99.90
8709;DHT22;4391;48.678;9.280;2023-03-01T06:48:57;-0.60;99.90
8709;DHT22;4391;48.678;9.280;2023-03-01T06:51:25;-0.60;99.90
8709;DHT22;4391;48.678;9.280;2023-03-01T06:53:52;-0.60;99.90
8709;DHT22;4391;48.678;9.280;2023-03-01T06:56:18;-0.60;99.90
8709;DHT22;4391;48.678;9.280;2023-03-01T06:58:46;-0.50;99.90
8709;DHT22;4391;48.678;9.280;2023-03-01T07:01:13;-0.50;99.90
8709;DHT22;4391;48.678;9.280;2023-03-01T07:03:40;-0.50;99.90
8709;DHT22;4391;48.678;9.280;2023-03-01T07:06:09;-0.40;99.90
8709;DHT22;4391;48.678;9.280;2023-03-01T07:08:36;-0.30;99.90
8709;DHT22;4391;48.678;9.280;2023-03-01T07:11:03;-0.10;1.00
8709;DHT22;4391;48.678;9.280;2023-03-01T07:13:31;0.10;1.00
8709;DHT22;4391;48.678;9.280;2023-03-01T07:15:59;0.40;1.00
8709;DHT22;4391;48.678;9.280;2023-03-01T07:18:26;0.70;99.90
8709;DHT22;4391;48.678;9.280;2023-03-01T07:20:53;1.00;1.00
8709;DHT22;4391;48.678;9.280;2023-03-01T07:23:19;1.20;99.90
8709;DHT22;4391;48.678;9.280;2023-03-01T07:25:51;1.40;11.50
8709;DHT22;4391;48.678;9.280;2023-03-01T07:28:18;1.60;1.00
8709;DHT22;4391;48.678;9.280;2023-03-01T07:30:45;1.60;99.90
8709;DHT22;4391;48.678;9.280;2023-03-01T07:33:13;1.80;99.90
8709;DHT22;4391;48.678;9.280;2023-03-01T07:35:40;1.90;99.90
8709;DHT22;4391;48.678;9.280;2023-03-01T07:38:06;2.10;99.90
8709;DHT22;4391;48.678;9.280;2023-03-01T07:40:33;2.30;27.50
8709;DHT22;4391;48.678;9.280;2023-03-01T07:43:00;2.50;1.00
8709;DHT22;4391;48.678;9.280;2023-03-01T07:45:28;2.60;1.00
8709;DHT22;4391;48.678;9.280;2023-03-01T07:47:55;2.70;1.00
8709;DHT22;4391;48.678;9.280;2023-03-01T07:50:23;2.90;1.00
8709;DHT22;4391;48.678;9.280;2023-03-01T07:52:50;3.10;1.00
8709;DHT22;4391;48.678;9.280;2023-03-01T07:55:17;3.10;1.00
8709;DHT22;4391;48.678;9.280;2023-03-01T07:57:44;3.30;1.00
8709;DHT22;4391;48.678;9.280;2023-03-01T08:00:12;3.50;99.90
8709;DHT22;4391;48.678;9.280;2023-03-01T08:02:39;3.70;99.90
8709;DHT22;4391;48.678;9.280;2023-03-01T08:05:07;3.80;99.90
8709;DHT22;4391;48.678;9.280;2023-03-01T08:07:36;4.00;99.90
8709;DHT22;4391;48.678;9.280;2023-03-01T08:10:03;4.30;99.90
8709;DHT22;4391;48.678;9.280;2023-03-01T08:12:30;4.50;99.90
8709;DHT22;4391;48.678;9.280;2023-03-01T08:14:56;4.60;99.90
8709;DHT22;4391;48.678;9.280;2023-03-01T08:17:23;4.80;99.90
8709;DHT22;4391;48.678;9.280;2023-03-01T08:19:50;5.00;99.90
8709;DHT22;4391;48.678;9.280;2023-03-01T08:22:17;5.10;99.90
8709;DHT22;4391;48.678;9.280;2023-03-01T08:24:46;5.30;99.90
8709;DHT22;4391;48.678;9.280;2023-03-01T08:27:15;5.40;99.90
8709;DHT22;4391;48.678;9.280;2023-03-01T08:29:42;5.50;99.90
8709;DHT22;4391;48.678;9.280;2023-03-01T08:32:09;5.70;99.90
8709;DHT22;4391;48.678;9.280;2023-03-01T08:34:36;5.90;99.90
8709;DHT22;4391;48.678;9.280;2023-03-01T08:37:03;6.00;99.90
8709;DHT22;4391;48.678;9.280;2023-03-01T08:39:30;6.10;99.90
8709;DHT22;4391;48.678;9.280;2023-03-01T08:41:58;6.10;99.90
8709;DHT22;4391;48.678;9.280;2023-03-01T08:44:25;6.00;99.90
8709;DHT22;4391;48.678;9.280;2023-03-01T08:46:52;6.10;99.90
8709;DHT22;4391;48.678;9.280;2023-03-01T08:49:21;6.10;99.90
8709;DHT22;4391;48.678;9.280;2023-03-01T08:51:48;6.10;99.90
8709;DHT22;4391;48.678;9.280;2023-03-01T08:54:16;6.30;99.90
8709;DHT22;4391;48.678;9.280;2023-03-01T08:56:44;6.60;99.90
8709;DHT22;4391;48.678;9.280;2023-03-01T08:59:14;6.80;99.90
8709;DHT22;4391;48.678;9.280;2023-03-01T09:01:41;6.90;99.90
8709;DHT22;4391;48.678;9.280;2023-03-01T09:04:10;6.90;99.90
8709;DHT22;4391;48.678;9.280;2023-03-01T09:06:36;7.00;99.90
8709;DHT22;4391;48.678;9.280;2023-03-01T09:09:04;7.00;99.90
8709;DHT22;4391;48.678;9.280;2023-03-01T09:11:31;6.90;99.90
8709;DHT22;4391;48.678;9.280;2023-03-01T09:13:58;6.70;99.90
8709;DHT22;4391;48.678;9.280;2023-03-01T09:16:26;7.20;99.90
8709;DHT22;4391;48.678;9.280;2023-03-01T09:18:55;7.50;99.90
8709;DHT22;4391;48.678;9.280;2023-03-01T09:21:23;7.40;99.90
8709;DHT22;4391;48.678;9.280;2023-03-01T09:23:50;7.60;99.90
8709;DHT22;4391;48.678;9.280;2023-03-01T09:26:18;7.30;99.90
8709;DHT22;4391;48.678;9.280;2023-03-01T09:28:47;7.60;99.90
8709;DHT22;4391;48.678;9.280;2023-03-01T09:31:15;8.00;99.90
8709;DHT22;4391;48.678;9.280;2023-03-01T09:33:46;8.40;99.90
8709;DHT22;4391;48.678;9.280;2023-03-01T09:36:15;8.80;99.90
8709;DHT22;4391;48.678;9.280;2023-03-01T09:38:42;9.00;99.90
8709;DHT22;4391;48.678;9.280;2023-03-01T09:41:11;9.40;99.90
8709;DHT22;4391;48.678;9.280;2023-03-01T09:43:46;9.30;99.90
8709;DHT22;4391;48.678;9.280;2023-03-01T09:46:14;9.20;99.90
8709;DHT22;4391;48.678;9.280;2023-03-01T09:48:50;9.00;99.90
8709;DHT22;4391;48.678;9.280;2023-03-01T09:51:22;9.10;99.90
8709;DHT22;4391;48.678;9.280;2023-03-01T09:53:50;9.50;99.90
8709;DHT22;4391;48.678;9.280;2023-03-01T09:56:22;9.50;99.90
8709;DHT22;4391;48.678;9.280;2023-03-01T09:58:54;9.50;99.90
8709;DHT22;4391;48.678;9.280;2023-03-01T10:01:32;9.80;99.90
8709;DHT22;4391;48.678;9.280;2023-03-01T10:07:02;10.30;99.90
8709;DHT22;4391;48.678;9.280;2023-03-01T10:09:34;10.40;99.90
8709;DHT22;4391;48.678;9.280;2023-03-01T10:12:04;10.50;99.90
8709;DHT22;4391;48.678;9.280;2023-03-01T10:14:37;10.40;99.90
8709;DHT22;4391;48.678;9.280;2023-03-01T10:17:10;10.50;99.90
8709;DHT22;4391;48.678;9.280;2023-03-01T10:19:42;10.40;99.90
8709;DHT22;4391;48.678;9.280;2023-03-01T10:22:18;10.80;99.90
8709;DHT22;4391;48.678;9.280;2023-03-01T10:24:47;11.00;99.90
8709;DHT22;4391;48.678;9.280;2023-03-01T10:27:19;11.00;99.90
8709;DHT22;4391;48.678;9.280;2023-03-01T10:29:54;11.30;99.90
8709;DHT22;4391;48.678;9.280;2023-03-01T10:32:25;11.30;99.90
8709;DHT22;4391;48.678;9.280;2023-03-01T10:34:53;11.70;99.90
8709;DHT22;4391;48.678;9.280;2023-03-01T10:37:21;11.70;99.90
8709;DHT22;4391;48.678;9.280;2023-03-01T10:39:57;11.60;99.90
8709;DHT22;4391;48.678;9.280;2023-03-01T10:42:28;12.00;99.90
8709;DHT22;4391;48.678;9.280;2023-03-01T10:44:58;12.00;99.90
8709;DHT22;4391;48.678;9.280;2023-03-01T10:47:36;12.10;99.90
8709;DHT22;4391;48.678;9.280;2023-03-01T10:50:08;12.50;99.90
8709;DHT22;4391;48.678;9.280;2023-03-01T10:52:56;13.00;99.90
8709;DHT22;4391;48.678;9.280;2023-03-01T10:55:35;13.60;99.90
8709;DHT22;4391;48.678;9.280;2023-03-01T10:58:17;13.80;99.90
8709;DHT22;4391;48.678;9.280;2023-03-01T11:00:47;14.00;99.90
8709;DHT22;4391;48.678;9.280;2023-03-01T11:03:18;14.40;99.90
8709;DHT22;4391;48.678;9.280;2023-03-01T11:05:55;14.70;99.90
8709;DHT22;4391;48.678;9.280;2023-03-01T11:08:37;14.80;99.90
8709;DHT22;4391;48.678;9.280;2023-03-01T11:13:52;14.60;99.90
8709;DHT22;4391;48.678;9.280;2023-03-01T11:16:24;14.10;99.90
8709;DHT22;4391;48.678;9.280;2023-03-01T11:19:14;14.60;99.90
8709;DHT22;4391;48.678;9.280;2023-03-01T11:21:50;14.90;99.90
8709;DHT22;4391;48.678;9.280;2023-03-01T11:24:19;15.50;99.90
8709;DHT22;4391;48.678;9.280;2023-03-01T11:26:50;15.90;99.90
8709;DHT22;4391;48.678;9.280;2023-03-01T11:29:26;16.60;99.90
8709;DHT22;4391;48.678;9.280;2023-03-01T11:31:57;17.00;99.90
8709;DHT22;4391;48.678;9.280;2023-03-01T11:34:35;17.50;99.90
8709;DHT22;4391;48.678;9.280;2023-03-01T11:37:15;17.80;99.90
8709;DHT22;4391;48.678;9.280;2023-03-01T11:39:54;17.80;99.90
8709;DHT22;4391;48.678;9.280;2023-03-01T11:42:30;17.80;99.90
8709;DHT22;4391;48.678;9.280;2023-03-01T11:45:08;18.00;99.90
8709;DHT22;4391;48.678;9.280;2023-03-01T11:47:49;18.10;99.90
8709;DHT22;4391;48.678;9.280;2023-03-01T11:50:28;18.20;99.90
8709;DHT22;4391;48.678;9.280;2023-03-01T11:53:13;18.70;99.90
8709;DHT22;4391;48.678;9.280;2023-03-01T11:55:57;18.80;99.90
8709;DHT22;4391;48.678;9.280;2023-03-01T11:58:38;19.00;99.90
8709;DHT22;4391;48.678;9.280;2023-03-01T12:01:18;19.40;99.90
8709;DHT22;4391;48.678;9.280;2023-03-01T12:04:10;19.10;99.90
8709;DHT22;4391;48.678;9.280;2023-03-01T12:06:52;20.20;99.90
8709;DHT22;4391;48.678;9.280;2023-03-01T12:09:37;20.70;99.90
8709;DHT22;4391;48.678;9.280;2023-03-01T12:15:07;21.20;99.90
8709;DHT22;4391;48.678;9.280;2023-03-01T12:17:55;21.50;99.90
8709;DHT22;4391;48.678;9.280;2023-03-01T12:20:29;21.20;99.90
8709;DHT22;4391;48.678;9.280;2023-03-01T12:23:12;21.20;99.90
8709;DHT22;4391;48.678;9.280;2023-03-01T12:25:46;22.20;99.90
8709;DHT22;4391;48.678;9.280;2023-03-01T12:28:37;22.00;99.90
8709;DHT22;4391;48.678;9.280;2023-03-01T12:31:17;22.50;99.90
8709;DHT22;4391;48.678;9.280;2023-03-01T12:33:57;23.20;99.90
8709;DHT22;4391;48.678;9.280;2023-03-01T12:36:53;24.20;99.90
8709;DHT22;4391;48.678;9.280;2023-03-01T12:39:36;23.60;99.90
8709;DHT22;4391;48.678;9.280;2023-03-01T12:42:17;24.00;99.90
8709;DHT22;4391;48.678;9.280;2023-03-01T12:45:01;24.00;99.90
8709;DHT22;4391;48.678;9.280;2023-03-01T12:47:52;24.10;99.90
8709;DHT22;4391;48.678;9.280;2023-03-01T12:50:23;24.80;99.90
8709;DHT22;4391;48.678;9.280;2023-03-01T12:52:52;25.10;99.90
8709;DHT22;4391;48.678;9.280;2023-03-01T12:55:28;24.70;99.90
8709;DHT22;4391;48.678;9.280;2023-03-01T12:58:03;23.80;99.90
8709;DHT22;4391;48.678;9.280;2023-03-01T13:00:37;24.20;99.90
8709;DHT22;4391;48.678;9.280;2023-03-01T13:03:13;25.20;99.90
8709;DHT22;4391;48.678;9.280;2023-03-01T13:05:56;25.40;99.90
8709;DHT22;4391;48.678;9.280;2023-03-01T13:08:31;25.10;99.90
8709;DHT22;4391;48.678;9.280;2023-03-01T13:11:05;25.00;99.90
8709;DHT22;4391;48.678;9.280;2023-03-01T13:13:33;25.30;99.90
8709;DHT22;4391;48.678;9.280;2023-03-01T13:16:22;25.40;99.90
8709;DHT22;4391;48.678;9.280;2023-03-01T13:18:49;25.70;99.90
8709;DHT22;4391;48.678;9.280;2023-03-01T13:21:29;25.90;99.90
8709;DHT22;4391;48.678;9.280;2023-03-01T13:23:56;25.50;99.90
8709;DHT22;4391;48.678;9.280;2023-03-01T13:26:23;24.80;99.90
8709;DHT22;4391;48.678;9.280;2023-03-01T13:28:53;24.80;99.90
8709;DHT22;4391;48.678;9.280;2023-03-01T13:34:56;25.30;99.90
8709;DHT22;4391;48.678;9.280;2023-03-01T13:37:35;24.50;99.90
8709;DHT22;4391;48.678;9.280;2023-03-01T13:42:52;23.80;99.90
8709;DHT22;4391;48.678;9.280;2023-03-01T13:45:24;23.90;99.90
8709;DHT22;4391;48.678;9.280;2023-03-01T13:47:57;23.30;99.90
8709;DHT22;4391;48.678;9.280;2023-03-01T13:50:28;23.60;99.90
8709;DHT22;4391;48.678;9.280;2023-03-01T13:52:57;22.50;99.90
8709;DHT22;4391;48.678;9.280;2023-03-01T13:55:30;22.20;99.90
8709;DHT22;4391;48.678;9.280;2023-03-01T13:58:01;22.40;99.90
8709;DHT22;4391;48.678;9.280;2023-03-01T14:00:36;21.90;99.90
8709;DHT22;4391;48.678;9.280;2023-03-01T14:03:05;22.20;99.90
8709;DHT22;4391;48.678;9.280;2023-03-01T14:05:35;21.20;99.90
8709;DHT22;4391;48.678;9.280;2023-03-01T14:08:02;21.30;99.90
8709;DHT22;4391;48.678;9.280;2023-03-01T14:10:35;22.30;99.90
8709;DHT22;4391;48.678;9.280;2023-03-01T14:13:18;22.90;99.90
8709;DHT22;4391;48.678;9.280;2023-03-01T14:15:58;22.90;99.90
8709;DHT22;4391;48.678;9.280;2023-03-01T14:18:35;22.20;99.90
8709;DHT22;4391;48.678;9.280;2023-03-01T14:21:07;22.20;99.90
8709;DHT22;4391;48.678;9.280;2023-03-01T14:23:34;22.60;99.90
8709;DHT22;4391;48.678;9.280;2023-03-01T14:26:04;22.30;99.90
8709;DHT22;4391;48.678;9.280;2023-03-01T14:28:32;22.10;99.90
8709;DHT22;4391;48.678;9.280;2023-03-01T14:31:36;23.20;99.90
8709;DHT22;4391;48.678;9.280;2023-03-01T14:34:04;23.60;99.90
8709;DHT22;4391;48.678;9.280;2023-03-01T14:36:32;24.20;99.90
8709;DHT22;4391;48.678;9.280;2023-03-01T14:39:00;24.60;99.90
8709;DHT22;4391;48.678;9.280;2023-03-01T14:41:33;24.00;99.90
8709;DHT22;4391;48.678;9.280;2023-03-01T14:44:03;23.20;99.90
8709;DHT22;4391;48.678;9.280;2023-03-01T14:46:33;22.50;99.90
8709;DHT22;4391;48.678;9.280;2023-03-01T14:49:05;21.70;99.90
8709;DHT22;4391;48.678;9.280;2023-03-01T14:51:36;21.10;99.90
8709;DHT22;4391;48.678;9.280;2023-03-01T14:54:11;20.40;99.90
8709;DHT22;4391;48.678;9.280;2023-03-01T14:56:44;20.80;99.90
8709;DHT22;4391;48.678;9.280;2023-03-01T14:59:11;20.40;99.90
8709;DHT22;4391;48.678;9.280;2023-03-01T15:01:40;20.20;99.90
8709;DHT22;4391;48.678;9.280;2023-03-01T15:04:11;19.50;99.90
8709;DHT22;4391;48.678;9.280;2023-03-01T15:06:39;19.80;99.90
8709;DHT22;4391;48.678;9.280;2023-03-01T15:09:06;20.20;99.90
8709;DHT22;4391;48.678;9.280;2023-03-01T15:11:37;20.20;99.90
8709;DHT22;4391;48.678;9.280;2023-03-01T15:17:04;19.30;99.90
8709;DHT22;4391;48.678;9.280;2023-03-01T15:19:32;19.20;99.90
8709;DHT22;4391;48.678;9.280;2023-03-01T15:21:59;18.80;99.90
8709;DHT22;4391;48.678;9.280;2023-03-01T15:24:37;18.80;99.90
8709;DHT22;4391;48.678;9.280;2023-03-01T15:27:04;18.40;99.90
8709;DHT22;4391;48.678;9.280;2023-03-01T15:29:33;18.30;99.90
8709;DHT22;4391;48.678;9.280;2023-03-01T15:32:22;18.20;99.90
8709;DHT22;4391;48.678;9.280;2023-03-01T15:34:52;18.20;99.90
8709;DHT22;4391;48.678;9.280;2023-03-01T15:37:36;17.80;99.90
8709;DHT22;4391;48.678;9.280;2023-03-01T15:40:18;17.40;99.90
8709;DHT22;4391;48.678;9.280;2023-03-01T15:42:46;17.00;99.90
8709;DHT22;4391;48.678;9.280;2023-03-01T15:45:22;16.50;99.90
8709;DHT22;4391;48.678;9.280;2023-03-01T15:47:51;16.50;99.90
8709;DHT22;4391;48.678;9.280;2023-03-01T15:50:22;16.10;99.90
8709;DHT22;4391;48.678;9.280;2023-03-01T15:52:50;15.80;99.90
8709;DHT22;4391;48.678;9.280;2023-03-01T15:55:19;15.80;99.90
8709;DHT22;4391;48.678;9.280;2023-03-01T15:57:46;15.70;99.90
8709;DHT22;4391;48.678;9.280;2023-03-01T16:00:17;15.70;99.90
8709;DHT22;4391;48.678;9.280;2023-03-01T16:02:44;15.30;99.90
8709;DHT22;4391;48.678;9.280;2023-03-01T16:05:19;14.70;99.90
8709;DHT22;4391;48.678;9.280;2023-03-01T16:07:46;14.60;99.90
8709;DHT22;4391;48.678;9.280;2023-03-01T16:10:13;14.10;99.90
8709;DHT22;4391;48.678;9.280;2023-03-01T16:12:43;13.50;99.90
8709;DHT22;4391;48.678;9.280;2023-03-01T16:15:15;13.10;99.90
8709;DHT22;4391;48.678;9.280;2023-03-01T16:17:42;12.90;99.90
8709;DHT22;4391;48.678;9.280;2023-03-01T16:20:10;12.50;98.40
8709;DHT22;4391;48.678;9.280;2023-03-01T16:22:38;12.20;97.60
8709;DHT22;4391;48.678;9.280;2023-03-01T16:25:08;12.10;97.30
8709;DHT22;4391;48.678;9.280;2023-03-01T16:27:35;11.30;93.90
8709;DHT22;4391;48.678;9.280;2023-03-01T16:30:02;10.50;90.10
8709;DHT22;4391;48.678;9.280;2023-03-01T16:32:29;9.70;84.80
8709;DHT22;4391;48.678;9.280;2023-03-01T16:34:56;9.10;79.40
8709;DHT22;4391;48.678;9.280;2023-03-01T16:37:23;8.60;76.50
8709;DHT22;4391;48.678;9.280;2023-03-01T16:39:51;8.10;72.50
8709;DHT22;4391;48.678;9.280;2023-03-01T16:42:18;7.70;70.50
8709;DHT22;4391;48.678;9.280;2023-03-01T16:44:45;7.30;68.70
8709;DHT22;4391;48.678;9.280;2023-03-01T16:47:12;7.00;67.80
8709;DHT22;4391;48.678;9.280;2023-03-01T16:49:38;6.90;68.70